Time;durP1;ratioP1;P1;durP2;ratioP2;P2;SDS_P1;SDS_P2;PMS_P1;PMS_P2;Temp;Humidity;BMP_temperature;BMP_pressure;BME280_temperature;BME280_humidity;BME280_pressure;Samples;Min_cycle;Max_cycle;Signal;HPM_P1;HPM_P2
2021/12/04 00:04:34;;;;;;;8.68;5.13;;;;;;;19.26;53.15;95542.91;10466466;28;20044;-21
2021/12/04 00:09:35;;;;;;;5.77;3.33;;;;;;;19.23;53.17;95522.66;10472009;28;20068;-21
2021/12/04 00:14:37;;;;;;;7.60;3.50;;;;;;;19.22;53.23;95521.00;10466621;28;20032;-21
2021/12/04 00:19:37;;;;;;;6.82;3.33;;;;;;;19.12;53.36;95484.84;10474078;28;20488;-21
2021/12/04 00:24:38;;;;;;;5.03;3.30;;;;;;;19.20;53.42;95482.13;10475162;28;20037;-22
2021/12/04 00:29:38;;;;;;;3.95;3.08;;;;;;;19.09;53.36;95458.69;10479450;28;20043;-21
2021/12/04 00:34:44;;;;;;;6.22;3.30;;;;;;;19.19;53.48;95462.72;10470994;28;20028;-21
2021/12/04 00:50:23;;;;;;;7.78;3.47;;;;;;;19.23;53.20;95444.84;10457163;28;20515;-21
2021/12/04 00:55:23;;;;;;;5.77;3.30;;;;;;;19.21;53.19;95418.69;10474975;28;20036;-21
2021/12/04 01:00:23;;;;;;;6.50;3.53;;;;;;;19.21;53.23;95405.16;10471207;28;20036;-21
2021/12/04 01:05:24;;;;;;;4.70;3.53;;;;;;;19.19;53.43;95410.25;10463660;28;20040;-21
2021/12/04 01:10:24;;;;;;;5.20;3.42;;;;;;;19.17;53.49;95411.16;10470853;28;20036;-21
2021/12/04 01:15:25;;;;;;;9.13;3.50;;;;;;;19.19;53.47;95404.38;10467916;28;20055;-21
2021/12/04 01:20:25;;;;;;;8.05;2.78;;;;;;;19.23;53.20;95400.88;10475054;28;20295;-21
2021/12/04 01:25:26;;;;;;;4.23;2.87;;;;;;;19.24;53.18;95382.28;10473306;28;20119;-21
2021/12/04 01:30:26;;;;;;;5.32;3.17;;;;;;;19.11;53.24;95355.47;10477034;28;20290;-21
2021/12/04 01:35:28;;;;;;;5.05;3.05;;;;;;;19.23;53.04;95367.88;10450247;28;20641;-21
2021/12/04 01:40:28;;;;;;;6.88;4.00;;;;;;;19.21;53.29;95367.09;10451016;28;20036;-21
2021/12/04 01:45:29;;;;;;;5.47;2.63;;;;;;;19.20;53.25;95365.44;10454366;28;20083;-21
2021/12/04 01:50:31;;;;;;;5.18;2.60;;;;;;;19.19;53.14;95363.78;10456967;28;20029;-22
2021/12/04 01:55:35;;;;;;;5.75;3.25;;;;;;;19.18;53.23;95351.94;10474670;28;20087;-21
2021/12/04 02:00:40;;;;;;;4.70;2.45;;;;;;;19.19;53.25;95349.38;10468423;28;20043;-21
2021/12/04 02:05:41;;;;;;;6.55;2.97;;;;;;;19.13;53.08;95313.16;10460438;28;20078;-21
2021/12/04 02:10:43;;;;;;;6.15;2.67;;;;;;;19.17;53.29;95324.91;10467305;28;20040;-21
2021/12/04 02:15:45;;;;;;;4.82;3.10;;;;;;;19.21;53.11;95323.97;10463909;28;20037;-21
2021/12/04 02:20:45;;;;;;;4.32;2.83;;;;;;;19.20;53.29;95315.53;10473068;28;20081;-21
2021/12/04 02:25:46;;;;;;;4.32;2.75;;;;;;;19.19;53.31;95318.09;10471611;28;20575;-21
2021/12/04 02:30:48;;;;;;;7.32;2.90;;;;;;;19.16;53.40;95302.94;10465643;28;20071;-21
2021/12/04 02:35:51;;;;;;;3.97;2.50;;;;;;;19.18;53.51;95294.38;10460915;28;20098;-22
2021/12/04 02:40:55;;;;;;;4.25;2.60;;;;;;;19.12;53.67;95281.88;10467703;28;20604;-21
2021/12/04 02:45:55;;;;;;;4.05;3.10;;;;;;;19.18;54.03;95280.91;10467196;28;20085;-22
2021/12/04 02:50:56;;;;;;;9.23;2.73;;;;;;;19.18;53.54;95280.91;10462272;28;20040;-22
2021/12/04 02:55:56;;;;;;;3.22;2.40;;;;;;;19.17;53.37;95262.28;10474368;28;20551;-22
2021/12/04 03:00:57;;;;;;;3.00;2.50;;;;;;;19.19;53.39;95236.91;10469746;28;20040;-22
2021/12/04 03:05:58;;;;;;;4.20;2.30;;;;;;;19.21;53.27;95225.03;10459299;28;20036;-22
2021/12/04 03:10:58;;;;;;;2.90;2.30;;;;;;;19.17;53.48;95236.91;10467014;28;20291;-21
2021/12/04 03:15:59;;;;;;;7.67;2.47;;;;;;;19.19;53.56;95225.06;10456077;28;20433;-22
2021/12/04 03:21:03;;;;;;;5.03;2.30;;;;;;;19.08;53.93;95203.38;10460639;28;20033;-21
2021/12/04 03:26:08;;;;;;;4.53;2.92;;;;;;;19.04;53.84;95161.19;10469145;28;20037;-21
2021/12/04 03:41:10;;;;;;;6.43;2.57;;;;;;;19.19;53.46;95176.84;10471633;28;20557;-22
2021/12/04 03:46:14;;;;;;;2.72;2.10;;;;;;;19.17;53.70;95163.34;10463436;28;20459;-22
2021/12/04 03:51:16;;;;;;;4.47;2.35;;;;;;;19.14;53.74;95147.38;10459518;28;20029;-21
2021/12/04 03:56:21;;;;;;;6.03;2.60;;;;;;;19.14;53.79;95152.44;10471012;28;20044;-22
2021/12/04 04:01:22;;;;;;;4.47;2.67;;;;;;;19.13;53.72;95140.66;10463477;28;20044;-21
2021/12/04 04:06:22;;;;;;;4.30;1.97;;;;;;;19.14;53.81;95134.69;10458631;28;20426;-22
2021/12/04 04:11:22;;;;;;;4.25;2.20;;;;;;;19.19;53.67;95115.16;10455089;28;20620;-22
2021/12/04 04:16:23;;;;;;;8.20;2.90;;;;;;;19.18;53.63;95088.09;10468683;28;20032;-21
2021/12/04 04:21:23;;;;;;;6.47;2.50;;;;;;;19.18;53.39;95095.72;10461327;28;20029;-22
2021/12/04 04:26:23;;;;;;;3.57;2.43;;;;;;;19.12;53.54;95067.97;10461963;28;20318;-21
2021/12/04 04:31:24;;;;;;;6.03;3.00;;;;;;;19.17;53.37;95071.22;10455327;28;20040;-22
2021/12/04 05:13:34;;;;;;;4.88;2.30;;;;;;;19.15;54.00;95050.13;10463870;28;20119;-21
2021/12/04 05:18:37;;;;;;;3.92;2.03;;;;;;;19.15;53.79;95052.66;10461379;28;20484;-22
2021/12/04 05:23:44;;;;;;;3.97;1.90;;;;;;;19.17;53.88;95058.53;10462040;28;20036;-22
2021/12/04 05:28:46;;;;;;;4.80;2.03;;;;;;;19.14;54.03;95035.78;10467809;28;20397;-22
2021/12/04 05:33:47;;;;;;;4.78;2.58;;;;;;;19.16;53.92;95039.13;10462952;28;20488;-21
2021/12/04 05:38:48;;;;;;;5.00;3.55;;;;;;;19.04;53.99;95022.53;10470384;28;20060;-21
2021/12/04 05:43:49;;;;;;;3.70;1.93;;;;;;;19.10;54.02;95019.00;10464032;28;20201;-21
2021/12/04 05:48:54;;;;;;;4.22;2.15;;;;;;;19.20;53.96;95006.03;10465134;28;20297;-22
2021/12/04 05:58:59;;;;;;;3.58;2.05;;;;;;;19.16;53.86;95041.66;10459179;28;20056;-21
2021/12/04 06:03:59;;;;;;;5.15;2.53;;;;;;;19.18;53.87;95039.91;10459585;28;20219;-21
2021/12/04 06:08:59;;;;;;;4.07;1.90;;;;;;;19.17;53.94;95035.69;10463929;28;20687;-22
2021/12/04 06:14:00;;;;;;;11.23;3.93;;;;;;;19.12;53.79;95027.38;10462173;28;20033;-22
2021/12/04 06:19:11;;;;;;;4.15;1.85;;;;;;;19.23;53.74;95025.38;10456095;28;20090;-22
2021/12/04 06:24:11;;;;;;;3.45;2.20;;;;;;;19.21;53.69;95019.53;10463447;28;20503;-21
2021/12/04 06:29:12;;;;;;;2.70;1.40;;;;;;;19.23;53.37;95031.31;10456114;28;20033;-22
2021/12/04 06:34:12;;;;;;;3.33;1.80;;;;;;;19.22;53.50;95031.34;10468601;28;20029;-22
2021/12/04 06:39:12;;;;;;;2.30;1.53;;;;;;;19.22;53.50;95021.19;10466099;28;20043;-22
2021/12/04 06:44:13;;;;;;;2.50;1.57;;;;;;;19.23;53.43;95026.22;10461406;28;20032;-22
2021/12/04 06:49:27;;;;;;;2.70;1.50;;;;;;;19.24;53.57;95034.69;10459169;28;20049;-22
2021/12/04 06:54:35;;;;;;;3.97;1.50;;;;;;;19.20;53.36;95015.34;10453894;28;20024;-21
2021/12/04 06:59:38;;;;;;;2.47;1.50;;;;;;;19.25;53.28;95023.66;10454820;28;20507;-23
2021/12/04 07:04:38;;;;;;;3.28;2.30;;;;;;;19.14;53.44;95005.34;10452918;28;20416;-21
2021/12/04 07:09:39;;;;;;;3.97;1.85;;;;;;;19.25;53.25;95016.03;10469578;28;20039;-22
2021/12/04 07:14:40;;;;;;;3.33;1.33;;;;;;;19.10;53.55;95011.38;10459281;28;20052;-21
2021/12/04 07:19:40;;;;;;;1.83;1.35;;;;;;;19.12;53.41;94999.47;10460779;28;20040;-20
2021/12/04 07:24:40;;;;;;;2.50;1.63;;;;;;;19.13;53.38;94998.59;10458419;28;20134;-21
2021/12/04 07:29:41;;;;;;;2.47;1.50;;;;;;;19.27;53.08;95006.66;10458066;28;20044;-21
2021/12/04 07:34:41;;;;;;;2.30;1.47;;;;;;;19.15;53.12;94996.84;10459573;28;20047;-21
2021/12/04 07:39:41;;;;;;;3.00;2.10;;;;;;;19.25;53.25;95010.97;10469898;28;20113;-21
2021/12/04 07:44:42;;;;;;;2.88;1.50;;;;;;;19.23;53.51;95000.84;10460247;28;20642;-20
2021/12/04 07:49:43;;;;;;;2.57;1.37;;;;;;;19.24;53.51;94991.56;10455182;28;20047;-20
2021/12/04 07:54:43;;;;;;;3.47;1.17;;;;;;;19.26;53.48;95031.19;10464216;28;20061;-21
2021/12/04 07:59:44;;;;;;;2.83;1.53;;;;;;;19.30;53.74;95009.09;10459541;28;20129;-21
2021/12/04 08:04:45;;;;;;;3.95;2.42;;;;;;;19.14;53.81;95000.25;10462227;28;20871;-20
2021/12/04 08:09:45;;;;;;;2.97;2.35;;;;;;;19.22;54.00;95018.66;10460413;28;20464;-21
2021/12/04 08:14:46;;;;;;;2.93;1.90;;;;;;;19.32;53.76;95025.09;10459637;28;20481;-21
2021/12/04 08:19:46;;;;;;;2.83;1.58;;;;;;;19.21;53.85;95024.59;10464467;28;20510;-21
2021/12/04 08:24:47;;;;;;;4.45;1.65;;;;;;;19.28;53.56;95015.94;10469808;28;20083;-21
2021/12/04 08:29:48;;;;;;;9.00;4.28;;;;;;;19.21;53.12;95017.00;10467205;28;20218;-21
2021/12/04 08:34:50;;;;;;;14.80;10.00;;;;;;;19.28;52.12;95019.31;10467845;28;20108;-21
2021/12/04 08:39:50;;;;;;;9.70;6.20;;;;;;;19.19;52.43;95011.16;10468281;28;20033;-21
2021/12/04 08:44:52;;;;;;;11.80;7.37;;;;;;;19.20;52.89;95008.56;10465972;28;20079;-21
2021/12/04 08:49:52;;;;;;;15.50;7.28;;;;;;;19.23;52.75;95041.44;10461861;28;20042;-21
2021/12/04 08:54:52;;;;;;;12.23;7.05;;;;;;;19.30;52.75;95047.16;10455170;28;20397;-22
2021/12/04 08:59:53;;;;;;;10.20;5.73;;;;;;;19.30;52.95;95034.47;10456449;28;20039;-21
2021/12/04 09:04:56;;;;;;;15.53;6.73;;;;;;;19.21;53.24;95042.38;10453906;28;20294;-21
2021/12/04 09:09:57;;;;;;;9.65;6.55;;;;;;;19.29;53.09;95040.44;10457571;28;20044;-21
2021/12/04 09:14:57;;;;;;;18.00;7.53;;;;;;;19.32;53.29;95038.63;10458412;28;20033;-21
2021/12/04 09:19:58;;;;;;;15.13;9.50;;;;;;;18.96;50.85;95023.63;10467605;28;20037;-21
2021/12/04 09:25:00;;;;;;;16.00;7.65;;;;;;;19.13;53.32;95029.88;10471666;28;20045;-21
2021/12/04 09:30:10;;;;;;;15.40;7.97;;;;;;;19.23;53.54;95020.31;10459802;28;20029;-22
2021/12/04 10:22:39;;;;;;;11.05;8.55;;;;;;;19.28;54.21;94952.50;10466092;28;20036;-22
2021/12/04 10:33:18;;;;;;;9.68;8.20;;;;;;;19.25;54.31;94924.72;10432722;28;20106;-22
2021/12/04 10:38:23;;;;;;;14.82;8.45;;;;;;;19.30;54.05;94922.84;10463603;28;20060;-22
2021/12/04 10:43:26;;;;;;;11.55;8.43;;;;;;;19.27;54.25;94910.25;10461461;28;20044;-22
2021/12/04 10:48:31;;;;;;;10.68;8.35;;;;;;;19.15;54.24;94885.22;10469266;28;20095;-21
2021/12/04 10:53:37;;;;;;;13.18;7.78;;;;;;;19.19;54.08;94886.84;10463034;28;20125;-22
2021/12/04 11:51:00;;;;;;;13.75;7.40;;;;;;;19.28;53.74;94836.66;10459297;28;20543;-21
2021/12/04 11:56:01;;;;;;;11.80;8.35;;;;;;;19.29;54.10;94822.25;10464941;28;20258;-21
2021/12/04 12:01:09;;;;;;;15.15;9.48;;;;;;;19.32;54.43;94822.13;10457185;28;20041;-22
2021/12/04 12:06:10;;;;;;;11.13;9.05;;;;;;;19.29;54.52;94807.03;10458724;28;20044;-22
2021/12/04 12:11:20;;;;;;;13.73;8.52;;;;;;;19.26;54.40;94807.13;10461211;28;20573;-22
2021/12/04 12:16:25;;;;;;;10.48;6.95;;;;;;;19.22;54.52;94800.47;10459980;28;20036;-22
2021/12/04 12:21:42;;;;;;;9.30;7.63;;;;;;;19.27;54.45;94806.25;10464678;28;20040;-21
2021/12/04 12:32:20;;;;;;;9.77;6.85;;;;;;;19.25;54.28;94805.47;10461918;28;20493;-22
2021/12/04 12:37:23;;;;;;;9.25;7.50;;;;;;;19.31;55.02;94793.41;10461997;28;20082;-22
2021/12/04 12:42:36;;;;;;;13.77;9.13;;;;;;;19.26;55.22;94796.97;10460951;28;20044;-22
2021/12/04 12:47:47;;;;;;;9.90;8.73;;;;;;;19.25;55.39;94800.41;10454098;28;20491;-21
2021/12/04 12:52:59;;;;;;;17.02;9.95;;;;;;;19.23;55.40;94792.00;10456287;28;20028;-22
2021/12/04 12:58:12;;;;;;;12.95;9.13;;;;;;;19.28;55.28;94787.59;10460271;28;20120;-22
2021/12/04 13:13:52;;;;;;;9.88;8.00;;;;;;;19.30;54.53;94788.38;10466594;28;20028;-22
2021/12/04 13:18:58;;;;;;;8.38;7.38;;;;;;;19.30;54.43;94795.97;10468708;28;20428;-22
2021/12/04 13:23:59;;;;;;;9.13;6.97;;;;;;;19.29;54.29;94801.94;10465142;28;20037;-21
2021/12/04 13:29:03;;;;;;;10.02;6.82;;;;;;;19.30;54.14;94801.91;10463071;28;20036;-22
2021/12/04 13:34:06;;;;;;;11.25;7.35;;;;;;;19.34;54.15;94811.06;10464806;28;20033;-22
2021/12/04 13:39:09;;;;;;;23.52;7.68;;;;;;;19.38;54.61;94805.00;10461130;28;20087;-21
2021/12/04 13:44:13;;;;;;;16.50;8.35;;;;;;;19.36;53.95;94799.16;10469796;28;20036;-22
2021/12/04 13:49:18;;;;;;;12.60;8.70;;;;;;;19.33;55.00;94809.41;10462220;28;20086;-22
2021/12/04 13:54:19;;;;;;;17.13;8.00;;;;;;;19.32;55.21;94817.06;10470467;28;20031;-22
2021/12/04 13:59:25;;;;;;;14.80;8.55;;;;;;;19.31;55.00;94828.09;10467693;28;20033;-22
2021/12/04 14:04:25;;;;;;;12.00;8.80;;;;;;;19.30;55.47;94828.97;10461926;28;20037;-23
2021/12/04 14:09:35;;;;;;;12.40;8.35;;;;;;;19.30;55.37;94804.44;10469459;28;20033;-21
2021/12/04 14:14:36;;;;;;;10.68;8.10;;;;;;;19.29;55.22;94812.09;10460200;28;20408;-22
2021/12/04 14:19:37;;;;;;;11.57;8.27;;;;;;;19.33;55.11;94808.59;10462505;28;20040;-21
2021/12/04 14:24:43;;;;;;;14.18;8.57;;;;;;;19.36;55.09;94831.31;10462784;28;20313;-22
2021/12/04 14:29:48;;;;;;;9.87;6.93;;;;;;;19.33;54.98;94833.97;10462852;28;20147;-22
2021/12/04 14:34:57;;;;;;;11.55;7.00;;;;;;;19.37;54.73;94871.03;10458090;28;20271;-21
2021/12/04 14:39:58;;;;;;;13.75;7.05;;;;;;;19.30;55.27;94864.50;10454484;28;20055;-22
2021/12/04 14:45:07;;;;;;;12.52;6.90;;;;;;;19.29;55.31;94878.06;10457770;28;20034;-21
2021/12/04 14:50:10;;;;;;;9.30;6.95;;;;;;;19.30;55.20;94874.63;10457055;28;20037;-22
2021/12/04 14:55:20;;;;;;;10.45;8.23;;;;;;;19.29;55.31;94867.91;10458297;28;20396;-22
2021/12/04 15:00:35;;;;;;;11.27;8.48;;;;;;;19.19;55.42;94861.47;10462930;28;20025;-21
2021/12/04 15:05:53;;;;;;;16.73;13.73;;;;;;;19.36;55.23;94871.91;10452335;28;20489;-22
2021/12/04 15:11:07;;;;;;;15.50;12.48;;;;;;;19.33;55.11;94879.63;10458945;28;20025;-22
2021/12/04 15:16:12;;;;;;;13.38;11.73;;;;;;;19.33;55.11;94897.41;10463281;28;20032;-22
2021/12/04 15:21:18;;;;;;;14.32;10.52;;;;;;;19.34;55.00;94887.16;10456339;28;20398;-22
2021/12/04 15:26:20;;;;;;;11.35;10.10;;;;;;;19.28;55.04;94886.53;10457152;28;20116;-22
2021/12/04 15:31:23;;;;;;;10.98;9.77;;;;;;;19.27;54.95;94895.03;10469494;28;20489;-22
2021/12/04 15:36:39;;;;;;;15.05;11.15;;;;;;;19.31;55.29;94887.28;10456313;28;20036;-22
2021/12/04 15:42:15;;;;;;;10.13;9.13;;;;;;;19.36;54.91;94894.75;10458022;28;20595;-22
2021/12/04 15:57:36;;;;;;;28.10;25.30;;;;;;;19.33;56.27;94917.69;10458005;28;20098;-21
2021/12/04 16:02:45;;;;;;;24.48;21.85;;;;;;;19.29;55.94;94919.50;10457657;28;20052;-22
2021/12/04 16:07:59;;;;;;;21.88;19.70;;;;;;;19.22;55.68;94909.56;10459496;28;20047;-22
2021/12/04 16:12:59;;;;;;;20.58;18.50;;;;;;;19.29;55.39;94904.28;10462808;28;20025;-22
2021/12/04 16:18:00;;;;;;;18.95;16.95;;;;;;;19.26;55.38;94914.50;10452279;28;20037;-21
2021/12/04 16:23:02;;;;;;;18.70;16.60;;;;;;;19.26;55.32;94926.38;10453327;28;20044;-21
2021/12/04 16:33:27;;;;;;;16.73;14.63;;;;;;;19.28;54.34;94937.28;10456009;28;20083;-22
2021/12/04 16:38:27;;;;;;;18.60;16.60;;;;;;;19.23;55.23;94931.50;10458120;28;20542;-21
2021/12/04 16:43:33;;;;;;;22.07;17.73;;;;;;;19.24;55.52;94935.75;10463700;28;20284;-22
2021/12/04 16:48:38;;;;;;;22.67;19.30;;;;;;;19.22;55.66;94937.47;10459711;28;20341;-21
2021/12/04 16:59:13;;;;;;;23.83;18.67;;;;;;;19.20;55.83;94931.63;10467561;28;20036;-22
2021/12/04 17:04:14;;;;;;;22.83;16.50;;;;;;;19.31;55.49;94934.66;10462415;28;20037;-21
2021/12/04 17:09:16;;;;;;;25.50;18.38;;;;;;;19.30;55.97;94905.09;10462409;28;20420;-22
2021/12/04 17:14:17;;;;;;;22.88;16.60;;;;;;;19.28;55.70;94906.84;10459794;28;20028;-22
2021/12/04 17:19:18;;;;;;;23.58;16.15;;;;;;;19.26;55.29;94914.50;10457841;28;20032;-22
2021/12/04 17:24:23;;;;;;;22.40;16.17;;;;;;;19.29;55.25;94926.25;10465355;28;20071;-23
2021/12/04 17:29:25;;;;;;;21.10;14.80;;;;;;;19.27;55.49;94912.81;10468805;28;20472;-22
2021/12/04 17:34:27;;;;;;;28.90;17.70;;;;;;;19.24;56.09;94905.31;10456598;28;20021;-22
2021/12/04 17:39:27;;;;;;;20.73;15.20;;;;;;;19.26;55.50;94932.25;10446957;28;20098;-21
2021/12/04 17:44:27;;;;;;;31.17;19.63;;;;;;;19.28;56.22;94944.91;10457521;28;20442;-22
2021/12/04 17:49:28;;;;;;;39.17;23.77;;;;;;;19.31;56.10;95038.69;10459660;28;20282;-22
2021/12/04 17:54:30;;;;;;;30.02;19.73;;;;;;;19.36;55.94;95067.28;10466395;28;21088;-21
2021/12/04 17:59:32;;;;;;;32.72;20.38;;;;;;;19.30;56.05;95073.38;10454116;28;20067;-21
2021/12/04 18:04:41;;;;;;;27.17;18.80;;;;;;;19.29;56.24;95071.72;10467198;28;20087;-22
2021/12/04 18:09:45;;;;;;;33.35;20.10;;;;;;;19.29;55.81;95073.41;10455564;28;20451;-21
2021/12/04 18:14:47;;;;;;;29.13;17.35;;;;;;;19.26;55.71;95096.34;10457247;28;20031;-22
2021/12/04 18:19:49;;;;;;;29.38;17.67;;;;;;;19.19;55.63;95110.06;10471270;28;20035;-22
2021/12/04 18:24:49;;;;;;;29.70;17.25;;;;;;;19.22;55.66;95150.56;10463362;28;20033;-22
2021/12/04 18:29:50;;;;;;;28.57;17.80;;;;;;;19.28;55.68;95196.09;10466387;28;20040;-22
2021/12/04 18:34:50;;;;;;;46.03;19.60;;;;;;;19.24;56.04;95205.47;10454778;28;20295;-21
2021/12/04 18:39:51;;;;;;;27.83;18.40;;;;;;;19.23;56.29;95208.91;10463712;28;20055;-21
2021/12/04 18:44:51;;;;;;;32.58;18.60;;;;;;;19.19;56.21;95202.22;10460314;28;20037;-21
2021/12/04 18:49:52;;;;;;;33.53;18.40;;;;;;;19.16;56.22;95212.44;10457588;28;20033;-21
2021/12/04 18:54:52;;;;;;;33.87;18.23;;;;;;;19.27;55.90;95207.91;10455053;28;20728;-21
2021/12/04 18:59:52;;;;;;;25.73;17.10;;;;;;;19.18;55.82;95204.78;10457064;28;20278;-22
2021/12/04 19:04:53;;;;;;;31.27;16.80;;;;;;;19.33;55.05;95250.09;10456525;28;20033;-22
2021/12/04 19:09:53;;;;;;;33.90;18.92;;;;;;;19.26;56.06;95277.31;10452843;28;20655;-22
2021/12/04 19:14:54;;;;;;;27.67;18.55;;;;;;;19.19;56.13;95338.41;10446466;28;20040;-22
2021/12/04 19:19:54;;;;;;;27.73;18.07;;;;;;;19.16;56.15;95353.69;10458756;28;20670;-22
2021/12/04 19:24:54;;;;;;;22.70;16.77;;;;;;;19.24;55.92;95351.81;10456300;28;20098;-22
2021/12/04 19:29:55;;;;;;;27.52;17.58;;;;;;;19.25;55.73;95349.22;10454673;28;20044;-22
2021/12/04 19:50:53;;;;;;;24.70;15.75;;;;;;;19.26;55.31;95368.66;10451559;28;20522;-22
2021/12/04 19:56:11;;;;;;;23.77;16.63;;;;;;;19.30;55.21;95355.03;10455773;28;20045;-21
2021/12/04 20:01:29;;;;;;;23.10;15.13;;;;;;;19.29;55.10;95371.13;10451197;28;20029;-21
2021/12/04 20:17:10;;;;;;;24.73;15.13;;;;;;;19.28;55.30;95378.78;10467919;28;20103;-22
2021/12/04 20:22:12;;;;;;;21.70;14.10;;;;;;;19.30;54.98;95379.56;10475944;28;20454;-22
2021/12/04 20:27:14;;;;;;;19.65;12.80;;;;;;;19.30;54.72;95380.41;10461329;28;20361;-22
2021/12/04 20:38:14;;;;;;;19.23;13.70;;;;;;;19.24;54.88;95372.13;10467164;28;20467;-22
2021/12/04 21:51:49;;;;;;;20.13;12.57;;;;;;;19.26;55.16;95461.72;10456189;28;20082;-22
2021/12/04 22:12:40;;;;;;;23.52;13.88;;;;;;;19.04;55.68;95450.34;10461221;28;20060;-21
2021/12/04 22:18:02;;;;;;;19.20;12.25;;;;;;;19.26;55.75;95507.38;10471009;28;20040;-22
2021/12/04 23:00:39;;;;;;;14.80;10.50;;;;;;;19.23;55.69;95548.03;10460451;28;20093;-22
2021/12/04 23:16:28;;;;;;;16.90;11.50;;;;;;;19.35;55.48;95553.69;10465790;28;20041;-22
2021/12/04 23:32:45;;;;;;;18.35;11.48;;;;;;;19.26;55.46;95542.91;10457323;28;20024;-22
2021/12/04 23:43:14;;;;;;;20.63;11.63;;;;;;;19.30;55.12;95526.72;10457822;28;20090;-22
